N21SM KBCT-MYBC
Flight info
| Callsign | N21SM |
|---|---|
| Flight time | 0h 41m |
| Altitude | 25000 |
| Route | TURPS2 HALBI BR63V ZFP BR65V SYDNY VFR |
| Aircraft | SF50/L-BDGRSWY/LB2U2 |
Departure
| Time | 2026-04-25 20:26 |
|---|---|
| Airport | Boca Raton Airport (KBCT) |
Arrival
| Time | 2026-04-25 21:07 |
|---|---|
| Airport | Chub Cay Airport (MYBC) |
| Time | Latitude | Longitude | Altitude | Speed | Heading |
|---|---|---|---|---|---|
| 2026-04-25 20:04 | 26.38227 | -80.10656 | 23 ft | 0 kts | 131° |
| 2026-04-25 20:21 | 26.38201 | -80.10623 | 23 ft | 11 kts | 131° |
| 2026-04-25 20:21 | 26.38112 | -80.10612 | 20 ft | 11 kts | 149° |
| 2026-04-25 20:21 | 26.38059 | -80.10645 | 20 ft | 11 kts | 225° |
| 2026-04-25 20:22 | 26.37990 | -80.10720 | 19 ft | 16 kts | 224° |
| 2026-04-25 20:22 | 26.37932 | -80.10783 | 19 ft | 18 kts | 224° |
| 2026-04-25 20:22 | 26.37828 | -80.10896 | 19 ft | 13 kts | 223° |
| 2026-04-25 20:22 | 26.37772 | -80.10956 | 18 ft | 10 kts | 224° |
| 2026-04-25 20:23 | 26.37729 | -80.11003 | 18 ft | 7 kts | 225° |
| 2026-04-25 20:23 | 26.37696 | -80.11039 | 18 ft | 8 kts | 224° |
| 2026-04-25 20:23 | 26.37649 | -80.11090 | 19 ft | 11 kts | 224° |
| 2026-04-25 20:23 | 26.37581 | -80.11165 | 19 ft | 16 kts | 224° |
| 2026-04-25 20:24 | 26.37487 | -80.11266 | 19 ft | 20 kts | 224° |
| 2026-04-25 20:24 | 26.37431 | -80.11319 | 20 ft | 5 kts | 186° |
| 2026-04-25 20:24 | 26.37404 | -80.11303 | 20 ft | 7 kts | 136° |
| 2026-04-25 20:24 | 26.37439 | -80.11216 | 19 ft | 20 kts | 44° |
| 2026-04-25 20:25 | 26.37654 | -80.10983 | 17 ft | 68 kts | 43° |
| 2026-04-25 20:25 | 26.38086 | -80.10506 | 68 ft | 101 kts | 50° |
| 2026-04-25 20:25 | 26.38631 | -80.09964 | 332 ft | 106 kts | 47° |
| 2026-04-25 20:25 | 26.39241 | -80.09395 | 514 ft | 119 kts | 46° |
| 2026-04-25 20:26 | 26.39932 | -80.08685 | 724 ft | 145 kts | 45° |
| 2026-04-25 20:26 | 26.40752 | -80.07917 | 1086 ft | 161 kts | 44° |
| 2026-04-25 20:26 | 26.41682 | -80.07137 | 1477 ft | 174 kts | 34° |
| 2026-04-25 20:26 | 26.42767 | -80.06508 | 1938 ft | 172 kts | 31° |
| 2026-04-25 20:27 | 26.43804 | -80.05858 | 2408 ft | 168 kts | 34° |
| 2026-04-25 20:27 | 26.44814 | -80.05182 | 2713 ft | 170 kts | 33° |
| 2026-04-25 20:27 | 26.45846 | -80.04518 | 3024 ft | 171 kts | 32° |
| 2026-04-25 20:27 | 26.46880 | -80.03850 | 3333 ft | 172 kts | 33° |
| 2026-04-25 20:28 | 26.47923 | -80.03175 | 3657 ft | 173 kts | 32° |
| 2026-04-25 20:28 | 26.48972 | -80.02495 | 3977 ft | 176 kts | 31° |
| 2026-04-25 20:28 | 26.50032 | -80.01808 | 4298 ft | 177 kts | 31° |
| 2026-04-25 20:28 | 26.51104 | -80.01115 | 4624 ft | 179 kts | 30° |
| 2026-04-25 20:29 | 26.52183 | -80.00416 | 4947 ft | 180 kts | 30° |
| 2026-04-25 20:29 | 26.53051 | -79.99423 | 5247 ft | 182 kts | 58° |
| 2026-04-25 20:29 | 26.53673 | -79.98182 | 5574 ft | 184 kts | 59° |
| 2026-04-25 20:29 | 26.54355 | -79.96966 | 5901 ft | 186 kts | 54° |
| 2026-04-25 20:30 | 26.55092 | -79.95774 | 6236 ft | 187 kts | 53° |
| 2026-04-25 20:30 | 26.55830 | -79.94574 | 6570 ft | 188 kts | 53° |
| 2026-04-25 20:30 | 26.56569 | -79.93361 | 6883 ft | 189 kts | 53° |
| 2026-04-25 20:30 | 26.57313 | -79.92140 | 7204 ft | 191 kts | 53° |
| 2026-04-25 20:31 | 26.58063 | -79.90913 | 7541 ft | 192 kts | 53° |
| 2026-04-25 20:31 | 26.58806 | -79.89695 | 7874 ft | 193 kts | 53° |
| 2026-04-25 20:31 | 26.59562 | -79.88456 | 8217 ft | 194 kts | 53° |
| 2026-04-25 20:31 | 26.60334 | -79.87190 | 8569 ft | 195 kts | 53° |
| 2026-04-25 20:32 | 26.61088 | -79.85952 | 8916 ft | 196 kts | 53° |
| 2026-04-25 20:32 | 26.61858 | -79.84689 | 9270 ft | 197 kts | 53° |
| 2026-04-25 20:32 | 26.62634 | -79.83417 | 9637 ft | 199 kts | 53° |
| 2026-04-25 20:32 | 26.63161 | -79.82551 | 9880 ft | 200 kts | 52° |
| 2026-04-25 20:33 | 26.64201 | -79.80848 | 10321 ft | 201 kts | 52° |
| 2026-04-25 20:33 | 26.64990 | -79.79552 | 10659 ft | 202 kts | 52° |
| 2026-04-25 20:33 | 26.65785 | -79.78251 | 11013 ft | 203 kts | 52° |
| 2026-04-25 20:33 | 26.66054 | -79.77809 | 11130 ft | 204 kts | 52° |
| 2026-04-25 20:34 | 26.67382 | -79.75619 | 11724 ft | 206 kts | 54° |
| 2026-04-25 20:34 | 26.67896 | -79.74110 | 12074 ft | 212 kts | 77° |
| 2026-04-25 20:34 | 26.67959 | -79.72450 | 12441 ft | 215 kts | 89° |
| 2026-04-25 20:34 | 26.67945 | -79.70772 | 12814 ft | 216 kts | 87° |
| 2026-04-25 20:35 | 26.67949 | -79.69085 | 13197 ft | 218 kts | 87° |
| 2026-04-25 20:35 | 26.67944 | -79.67386 | 13582 ft | 219 kts | 87° |
| 2026-04-25 20:35 | 26.67939 | -79.65677 | 13946 ft | 220 kts | 87° |
| 2026-04-25 20:35 | 26.67931 | -79.63959 | 14293 ft | 221 kts | 87° |
| 2026-04-25 20:36 | 26.67925 | -79.62233 | 14643 ft | 222 kts | 87° |
| 2026-04-25 20:36 | 26.67918 | -79.60501 | 15004 ft | 223 kts | 88° |
| 2026-04-25 20:36 | 26.67912 | -79.58766 | 15363 ft | 224 kts | 88° |
| 2026-04-25 20:36 | 26.67904 | -79.57023 | 15727 ft | 224 kts | 88° |
| 2026-04-25 20:37 | 26.67897 | -79.55281 | 16095 ft | 224 kts | 88° |
| 2026-04-25 20:37 | 26.67889 | -79.53531 | 16471 ft | 225 kts | 88° |
| 2026-04-25 20:37 | 26.67881 | -79.51784 | 16839 ft | 225 kts | 88° |
| 2026-04-25 20:37 | 26.67874 | -79.50053 | 17207 ft | 225 kts | 88° |
| 2026-04-25 20:38 | 26.67864 | -79.48302 | 17582 ft | 225 kts | 88° |
| 2026-04-25 20:38 | 26.67858 | -79.46550 | 17960 ft | 225 kts | 88° |
| 2026-04-25 20:38 | 26.67851 | -79.44796 | 18322 ft | 226 kts | 88° |
| 2026-04-25 20:38 | 26.67843 | -79.43044 | 18647 ft | 226 kts | 88° |
| 2026-04-25 20:39 | 26.67835 | -79.41287 | 18971 ft | 226 kts | 88° |
| 2026-04-25 20:39 | 26.67826 | -79.39534 | 19297 ft | 226 kts | 88° |
| 2026-04-25 20:39 | 26.67819 | -79.37779 | 19628 ft | 226 kts | 88° |
| 2026-04-25 20:39 | 26.67816 | -79.37186 | 19734 ft | 226 kts | 88° |
| 2026-04-25 20:40 | 26.67801 | -79.34267 | 20282 ft | 226 kts | 88° |
| 2026-04-25 20:40 | 26.67791 | -79.32512 | 20613 ft | 226 kts | 88° |
| 2026-04-25 20:40 | 26.67782 | -79.30750 | 20944 ft | 226 kts | 88° |
| 2026-04-25 20:40 | 26.67773 | -79.28991 | 21280 ft | 226 kts | 88° |
| 2026-04-25 20:41 | 26.67762 | -79.27233 | 21607 ft | 226 kts | 88° |
| 2026-04-25 20:41 | 26.67752 | -79.25472 | 21939 ft | 227 kts | 88° |
| 2026-04-25 20:41 | 26.67739 | -79.23707 | 22274 ft | 227 kts | 88° |
| 2026-04-25 20:41 | 26.67729 | -79.21941 | 22604 ft | 227 kts | 88° |
| 2026-04-25 20:42 | 26.67717 | -79.20175 | 22944 ft | 228 kts | 88° |
| 2026-04-25 20:42 | 26.67705 | -79.18402 | 23277 ft | 228 kts | 88° |
| 2026-04-25 20:42 | 26.67693 | -79.16628 | 23599 ft | 228 kts | 88° |
| 2026-04-25 20:42 | 26.67681 | -79.14853 | 23883 ft | 229 kts | 88° |
| 2026-04-25 20:43 | 26.67625 | -79.13074 | 24160 ft | 229 kts | 90° |
| 2026-04-25 20:43 | 26.67573 | -79.11296 | 24440 ft | 229 kts | 88° |
| 2026-04-25 20:43 | 26.67525 | -79.09517 | 24718 ft | 229 kts | 89° |
| 2026-04-25 20:43 | 26.67466 | -79.07732 | 24947 ft | 233 kts | 89° |
| 2026-04-25 20:44 | 26.67409 | -79.05888 | 24955 ft | 248 kts | 89° |
| 2026-04-25 20:44 | 26.67344 | -79.03899 | 24965 ft | 262 kts | 89° |
| 2026-04-25 20:44 | 26.67277 | -79.01812 | 24967 ft | 274 kts | 89° |
| 2026-04-25 20:44 | 26.67057 | -78.99661 | 24963 ft | 285 kts | 104° |
| 2026-04-25 20:45 | 26.66300 | -78.97579 | 24966 ft | 293 kts | 115° |
| 2026-04-25 20:45 | 26.65370 | -78.95524 | 24968 ft | 300 kts | 116° |
| 2026-04-25 20:45 | 26.64493 | -78.93390 | 24968 ft | 304 kts | 112° |
| 2026-04-25 20:45 | 26.63698 | -78.91174 | 24968 ft | 309 kts | 110° |
| 2026-04-25 20:46 | 26.62877 | -78.88938 | 24968 ft | 313 kts | 112° |
| 2026-04-25 20:46 | 26.62005 | -78.86700 | 24968 ft | 315 kts | 113° |
| 2026-04-25 20:46 | 26.61130 | -78.84444 | 24970 ft | 318 kts | 112° |
| 2026-04-25 20:46 | 26.60267 | -78.82162 | 24971 ft | 320 kts | 112° |
| 2026-04-25 20:47 | 26.59397 | -78.79870 | 24971 ft | 322 kts | 112° |
| 2026-04-25 20:47 | 26.58514 | -78.77567 | 24970 ft | 323 kts | 112° |
| 2026-04-25 20:47 | 26.57628 | -78.75251 | 24971 ft | 324 kts | 112° |
| 2026-04-25 20:47 | 26.56739 | -78.72928 | 24971 ft | 326 kts | 112° |
| 2026-04-25 20:48 | 26.56111 | -78.71409 | 24968 ft | 326 kts | 118° |
| 2026-04-25 20:48 | 26.54772 | -78.69363 | 24960 ft | 327 kts | 133° |
| 2026-04-25 20:48 | 26.53051 | -78.67708 | 24955 ft | 327 kts | 145° |
| 2026-04-25 20:48 | 26.50620 | -78.65715 | 24959 ft | 328 kts | 144° |
| 2026-04-25 20:49 | 26.49387 | -78.64684 | 24958 ft | 329 kts | 144° |
| 2026-04-25 20:49 | 26.47555 | -78.63150 | 24958 ft | 329 kts | 144° |
| 2026-04-25 20:49 | 26.45739 | -78.61646 | 24956 ft | 330 kts | 145° |
| 2026-04-25 20:49 | 26.43272 | -78.59604 | 24957 ft | 330 kts | 144° |
| 2026-04-25 20:50 | 26.42052 | -78.58591 | 24957 ft | 331 kts | 144° |
| 2026-04-25 20:50 | 26.40204 | -78.57059 | 24953 ft | 331 kts | 144° |
| 2026-04-25 20:50 | 26.38356 | -78.55528 | 24955 ft | 331 kts | 144° |
| 2026-04-25 20:50 | 26.36506 | -78.53996 | 24951 ft | 332 kts | 144° |
| 2026-04-25 20:51 | 26.34653 | -78.52462 | 24952 ft | 332 kts | 144° |
| 2026-04-25 20:51 | 26.32798 | -78.50927 | 24952 ft | 332 kts | 144° |
| 2026-04-25 20:51 | 26.30943 | -78.49393 | 24953 ft | 332 kts | 144° |
| 2026-04-25 20:51 | 26.29087 | -78.47857 | 24951 ft | 332 kts | 144° |
| 2026-04-25 20:52 | 26.27231 | -78.46322 | 24950 ft | 332 kts | 144° |
| 2026-04-25 20:52 | 26.26002 | -78.45306 | 24952 ft | 332 kts | 144° |
| 2026-04-25 20:52 | 26.23515 | -78.43252 | 24950 ft | 332 kts | 144° |
| 2026-04-25 20:52 | 26.21657 | -78.41716 | 24950 ft | 333 kts | 144° |
| 2026-04-25 20:53 | 26.19796 | -78.40181 | 24949 ft | 333 kts | 145° |
| 2026-04-25 20:53 | 26.17938 | -78.38647 | 24948 ft | 333 kts | 145° |
| 2026-04-25 20:53 | 26.16075 | -78.37111 | 24946 ft | 333 kts | 144° |
| 2026-04-25 20:53 | 26.14215 | -78.35578 | 24946 ft | 333 kts | 145° |
| 2026-04-25 20:54 | 26.12354 | -78.34043 | 24947 ft | 333 kts | 145° |
| 2026-04-25 20:54 | 26.10490 | -78.32509 | 24948 ft | 333 kts | 144° |
| 2026-04-25 20:54 | 26.08624 | -78.30971 | 24949 ft | 333 kts | 145° |
| 2026-04-25 20:54 | 26.06758 | -78.29435 | 24950 ft | 333 kts | 145° |
| 2026-04-25 20:55 | 26.04922 | -78.27925 | 24947 ft | 333 kts | 145° |
| 2026-04-25 20:55 | 26.03034 | -78.26372 | 24943 ft | 333 kts | 145° |
| 2026-04-25 20:55 | 26.01194 | -78.24859 | 24945 ft | 333 kts | 145° |
| 2026-04-25 20:55 | 25.99327 | -78.23327 | 24945 ft | 333 kts | 145° |
| 2026-04-25 20:56 | 25.97464 | -78.21796 | 24944 ft | 333 kts | 145° |
| 2026-04-25 20:56 | 25.95601 | -78.20267 | 24943 ft | 333 kts | 145° |
| 2026-04-25 20:56 | 25.93737 | -78.18738 | 24946 ft | 333 kts | 145° |
| 2026-04-25 20:56 | 25.91874 | -78.17209 | 24945 ft | 333 kts | 145° |
| 2026-04-25 20:57 | 25.90018 | -78.15688 | 24717 ft | 330 kts | 145° |
| 2026-04-25 20:57 | 25.88181 | -78.14181 | 24371 ft | 326 kts | 145° |
| 2026-04-25 20:57 | 25.86366 | -78.12694 | 24030 ft | 323 kts | 145° |
| 2026-04-25 20:57 | 25.84563 | -78.11218 | 23694 ft | 322 kts | 145° |
| 2026-04-25 20:58 | 25.82762 | -78.09744 | 23310 ft | 322 kts | 145° |
| 2026-04-25 20:58 | 25.80949 | -78.08261 | 22681 ft | 324 kts | 145° |
| 2026-04-25 20:58 | 25.79134 | -78.06775 | 22061 ft | 324 kts | 145° |
| 2026-04-25 20:58 | 25.77321 | -78.05293 | 21453 ft | 323 kts | 145° |
| 2026-04-25 20:59 | 25.75511 | -78.03813 | 20859 ft | 324 kts | 145° |
| 2026-04-25 20:59 | 25.73694 | -78.02328 | 20269 ft | 324 kts | 145° |
| 2026-04-25 20:59 | 25.71873 | -78.00841 | 19644 ft | 326 kts | 145° |
| 2026-04-25 20:59 | 25.70042 | -77.99346 | 18899 ft | 328 kts | 145° |
| 2026-04-25 21:00 | 25.68205 | -77.97846 | 18037 ft | 328 kts | 146° |
| 2026-04-25 21:00 | 25.66986 | -77.96851 | 17359 ft | 328 kts | 146° |
| 2026-04-25 21:00 | 25.62728 | -77.93378 | 15076 ft | 326 kts | 146° |
| 2026-04-25 21:01 | 25.60914 | -77.91900 | 14148 ft | 315 kts | 146° |
| 2026-04-25 21:01 | 25.59223 | -77.90516 | 13169 ft | 291 kts | 146° |
| 2026-04-25 21:01 | 25.57633 | -77.89233 | 12158 ft | 275 kts | 146° |
| 2026-04-25 21:01 | 25.56197 | -77.87854 | 11007 ft | 272 kts | 137° |
| 2026-04-25 21:02 | 25.54901 | -77.86348 | 10001 ft | 266 kts | 134° |
| 2026-04-25 21:02 | 25.53643 | -77.84872 | 8975 ft | 259 kts | 134° |
| 2026-04-25 21:02 | 25.52418 | -77.83440 | 7965 ft | 253 kts | 134° |
| 2026-04-25 21:02 | 25.51116 | -77.82187 | 7039 ft | 244 kts | 153° |
| 2026-04-25 21:03 | 25.49580 | -77.81837 | 6678 ft | 218 kts | 186° |
| 2026-04-25 21:03 | 25.48192 | -77.82448 | 6181 ft | 219 kts | 219° |
| 2026-04-25 21:03 | 25.47130 | -77.83593 | 5694 ft | 207 kts | 228° |
| 2026-04-25 21:03 | 25.46179 | -77.84742 | 5199 ft | 198 kts | 228° |
| 2026-04-25 21:04 | 25.45341 | -77.85925 | 4706 ft | 195 kts | 243° |
| 2026-04-25 21:04 | 25.45142 | -77.87382 | 4193 ft | 194 kts | 277° |
| 2026-04-25 21:04 | 25.45384 | -77.88848 | 3712 ft | 194 kts | 282° |
| 2026-04-25 21:04 | 25.45636 | -77.90331 | 3008 ft | 198 kts | 281° |
| 2026-04-25 21:05 | 25.45879 | -77.91828 | 2489 ft | 191 kts | 280° |
| 2026-04-25 21:05 | 25.45651 | -77.93161 | 2243 ft | 187 kts | 236° |
| 2026-04-25 21:05 | 25.44626 | -77.93835 | 2044 ft | 169 kts | 182° |
| 2026-04-25 21:05 | 25.43577 | -77.93354 | 1470 ft | 172 kts | 134° |
| 2026-04-25 21:06 | 25.42945 | -77.92340 | 1056 ft | 147 kts | 116° |
| 2026-04-25 21:06 | 25.42567 | -77.91456 | 768 ft | 108 kts | 107° |
| 2026-04-25 21:06 | 25.42365 | -77.90702 | 482 ft | 104 kts | 102° |
| 2026-04-25 21:06 | 25.42249 | -77.90218 | 340 ft | 93 kts | 103° |
| 2026-04-25 21:07 | 25.42012 | -77.89314 | 145 ft | 90 kts | 101° |
| 2026-04-25 21:07 | 25.41859 | -77.88668 | 13 ft | 80 kts | 101° |
| 2026-04-25 21:07 | 25.41737 | -77.88157 | 3 ft | 59 kts | 104° |
| 2026-04-25 21:07 | 25.41644 | -77.87807 | 9 ft | 24 kts | 111° |
| 2026-04-25 21:08 | 25.41638 | -77.87771 | 11 ft | 4 kts | 353° |
| 2026-04-25 21:08 | 25.41662 | -77.87857 | 8 ft | 18 kts | 285° |
| 2026-04-25 21:08 | 25.41703 | -77.88025 | 6 ft | 27 kts | 284° |
| 2026-04-25 21:08 | 25.41759 | -77.88268 | 3 ft | 37 kts | 285° |
| 2026-04-25 21:09 | 25.41842 | -77.88518 | 6 ft | 7 kts | 286° |
| 2026-04-25 21:09 | 25.41863 | -77.88540 | 6 ft | 0 kts | 184° |